sensor_id;sensor_type;location;lat;lon;timestamp;P1;durP1;ratioP1;P2;durP2;ratioP2
6955;SDS011;50345;51.136;16.886;2023-07-20T00:01:13;4.90;;;2.43;;
6955;SDS011;50345;51.136;16.886;2023-07-20T00:03:39;4.00;;;2.70;;
6955;SDS011;50345;51.136;16.886;2023-07-20T00:06:04;3.40;;;3.10;;
6955;SDS011;50345;51.136;16.886;2023-07-20T00:08:30;3.27;;;2.97;;
6955;SDS011;50345;51.136;16.886;2023-07-20T00:10:56;3.20;;;2.67;;
6955;SDS011;50345;51.136;16.886;2023-07-20T00:13:22;3.90;;;3.00;;
6955;SDS011;50345;51.136;16.886;2023-07-20T00:15:47;6.50;;;3.20;;
6955;SDS011;50345;51.136;16.886;2023-07-20T00:18:13;3.87;;;3.40;;
6955;SDS011;50345;51.136;16.886;2023-07-20T00:20:39;4.07;;;3.67;;
6955;SDS011;50345;51.136;16.886;2023-07-20T00:23:05;5.63;;;4.90;;
6955;SDS011;50345;51.136;16.886;2023-07-20T00:25:31;9.95;;;7.85;;
6955;SDS011;50345;51.136;16.886;2023-07-20T00:27:58;5.10;;;3.95;;
6955;SDS011;50345;51.136;16.886;2023-07-20T00:30:24;4.47;;;3.10;;
6955;SDS011;50345;51.136;16.886;2023-07-20T00:32:49;3.70;;;2.70;;
6955;SDS011;50345;51.136;16.886;2023-07-20T00:35:15;2.80;;;2.60;;
6955;SDS011;50345;51.136;16.886;2023-07-20T00:37:40;3.93;;;2.77;;
6955;SDS011;50345;51.136;16.886;2023-07-20T00:40:06;4.03;;;2.60;;
6955;SDS011;50345;51.136;16.886;2023-07-20T00:42:35;3.55;;;3.00;;
6955;SDS011;50345;51.136;16.886;2023-07-20T00:45:00;3.87;;;3.00;;
6955;SDS011;50345;51.136;16.886;2023-07-20T00:47:26;4.60;;;3.03;;
6955;SDS011;50345;51.136;16.886;2023-07-20T00:49:52;3.35;;;3.00;;
6955;SDS011;50345;51.136;16.886;2023-07-20T00:52:19;4.03;;;3.30;;
6955;SDS011;50345;51.136;16.886;2023-07-20T00:54:47;6.20;;;4.18;;
6955;SDS011;50345;51.136;16.886;2023-07-20T00:57:15;3.80;;;3.20;;
6955;SDS011;50345;51.136;16.886;2023-07-20T00:59:43;3.45;;;3.15;;
6955;SDS011;50345;51.136;16.886;2023-07-20T01:02:09;3.30;;;2.60;;
6955;SDS011;50345;51.136;16.886;2023-07-20T01:04:34;3.40;;;3.00;;
6955;SDS011;50345;51.136;16.886;2023-07-20T01:07:14;3.83;;;2.97;;
6955;SDS011;50345;51.136;16.886;2023-07-20T01:12:43;10.95;;;8.23;;
6955;SDS011;50345;51.136;16.886;2023-07-20T01:15:12;10.13;;;8.98;;
6955;SDS011;50345;51.136;16.886;2023-07-20T01:17:38;8.43;;;7.63;;
6955;SDS011;50345;51.136;16.886;2023-07-20T01:20:05;5.60;;;4.85;;
6955;SDS011;50345;51.136;16.886;2023-07-20T01:25:34;3.42;;;3.05;;
6955;SDS011;50345;51.136;16.886;2023-07-20T01:33:47;3.95;;;2.90;;
6955;SDS011;50345;51.136;16.886;2023-07-20T01:36:16;4.38;;;2.75;;
6955;SDS011;50345;51.136;16.886;2023-07-20T01:38:43;2.55;;;2.22;;
6955;SDS011;50345;51.136;16.886;2023-07-20T01:41:09;4.97;;;3.20;;
6955;SDS011;50345;51.136;16.886;2023-07-20T01:43:36;6.35;;;3.45;;
6955;SDS011;50345;51.136;16.886;2023-07-20T01:46:01;2.70;;;2.50;;
6955;SDS011;50345;51.136;16.886;2023-07-20T01:48:27;2.77;;;2.57;;
6955;SDS011;50345;51.136;16.886;2023-07-20T01:50:53;3.57;;;3.27;;
6955;SDS011;50345;51.136;16.886;2023-07-20T01:53:19;3.10;;;2.67;;
6955;SDS011;50345;51.136;16.886;2023-07-20T01:55:45;5.65;;;2.92;;
6955;SDS011;50345;51.136;16.886;2023-07-20T01:58:11;3.20;;;2.90;;
6955;SDS011;50345;51.136;16.886;2023-07-20T02:00:37;4.97;;;2.73;;
6955;SDS011;50345;51.136;16.886;2023-07-20T02:03:03;3.10;;;2.80;;
6955;SDS011;50345;51.136;16.886;2023-07-20T02:05:29;6.30;;;2.77;;
6955;SDS011;50345;51.136;16.886;2023-07-20T02:07:54;4.23;;;3.30;;
6955;SDS011;50345;51.136;16.886;2023-07-20T02:10:20;5.30;;;4.83;;
6955;SDS011;50345;51.136;16.886;2023-07-20T02:12:45;5.93;;;5.30;;
6955;SDS011;50345;51.136;16.886;2023-07-20T02:15:11;7.00;;;6.40;;
6955;SDS011;50345;51.136;16.886;2023-07-20T02:17:38;9.90;;;8.93;;
6955;SDS011;50345;51.136;16.886;2023-07-20T02:20:06;15.23;;;13.80;;
6955;SDS011;50345;51.136;16.886;2023-07-20T02:22:34;16.88;;;15.38;;
6955;SDS011;50345;51.136;16.886;2023-07-20T02:25:00;16.23;;;14.83;;
6955;SDS011;50345;51.136;16.886;2023-07-20T02:27:25;17.40;;;16.00;;
6955;SDS011;50345;51.136;16.886;2023-07-20T02:29:51;15.60;;;14.10;;
6955;SDS011;50345;51.136;16.886;2023-07-20T02:32:17;6.30;;;5.70;;
6955;SDS011;50345;51.136;16.886;2023-07-20T02:34:43;7.50;;;4.80;;
6955;SDS011;50345;51.136;16.886;2023-07-20T02:37:08;4.70;;;4.30;;
6955;SDS011;50345;51.136;16.886;2023-07-20T02:39:34;6.80;;;4.40;;
6955;SDS011;50345;51.136;16.886;2023-07-20T02:41:59;5.80;;;4.43;;
6955;SDS011;50345;51.136;16.886;2023-07-20T02:44:25;5.40;;;3.60;;
6955;SDS011;50345;51.136;16.886;2023-07-20T02:46:50;8.00;;;3.80;;
6955;SDS011;50345;51.136;16.886;2023-07-20T02:49:16;4.30;;;3.90;;
6955;SDS011;50345;51.136;16.886;2023-07-20T02:51:41;7.13;;;6.53;;
6955;SDS011;50345;51.136;16.886;2023-07-20T02:54:07;9.00;;;8.10;;
6955;SDS011;50345;51.136;16.886;2023-07-20T02:56:33;9.70;;;6.50;;
6955;SDS011;50345;51.136;16.886;2023-07-20T02:58:58;9.10;;;4.87;;
6955;SDS011;50345;51.136;16.886;2023-07-20T03:01:26;5.53;;;5.03;;
6955;SDS011;50345;51.136;16.886;2023-07-20T03:03:54;4.63;;;2.50;;
6955;SDS011;50345;51.136;16.886;2023-07-20T03:06:19;3.23;;;2.97;;
6955;SDS011;50345;51.136;16.886;2023-07-20T03:08:45;2.60;;;2.40;;
6955;SDS011;50345;51.136;16.886;2023-07-20T03:11:13;2.70;;;2.50;;
6955;SDS011;50345;51.136;16.886;2023-07-20T03:13:40;3.50;;;2.90;;
6955;SDS011;50345;51.136;16.886;2023-07-20T03:16:07;3.20;;;2.90;;
6955;SDS011;50345;51.136;16.886;2023-07-20T03:18:37;4.55;;;3.15;;
6955;SDS011;50345;51.136;16.886;2023-07-20T03:21:04;3.65;;;2.65;;
6955;SDS011;50345;51.136;16.886;2023-07-20T03:23:30;5.85;;;3.28;;
6955;SDS011;50345;51.136;16.886;2023-07-20T03:25:56;5.63;;;3.10;;
6955;SDS011;50345;51.136;16.886;2023-07-20T03:28:22;3.27;;;2.97;;
6955;SDS011;50345;51.136;16.886;2023-07-20T03:30:52;3.60;;;3.07;;
6955;SDS011;50345;51.136;16.886;2023-07-20T03:33:30;4.78;;;3.17;;
6955;SDS011;50345;51.136;16.886;2023-07-20T03:35:56;6.43;;;3.80;;
6955;SDS011;50345;51.136;16.886;2023-07-20T03:38:24;3.50;;;3.20;;
6955;SDS011;50345;51.136;16.886;2023-07-20T03:40:50;4.30;;;2.78;;
6955;SDS011;50345;51.136;16.886;2023-07-20T03:43:16;5.80;;;3.03;;
6955;SDS011;50345;51.136;16.886;2023-07-20T03:45:42;4.60;;;3.43;;
6955;SDS011;50345;51.136;16.886;2023-07-20T03:48:08;6.10;;;4.30;;
6955;SDS011;50345;51.136;16.886;2023-07-20T03:50:34;7.67;;;3.90;;
6955;SDS011;50345;51.136;16.886;2023-07-20T03:53:00;6.60;;;3.50;;
6955;SDS011;50345;51.136;16.886;2023-07-20T03:55:25;3.40;;;3.10;;
6955;SDS011;50345;51.136;16.886;2023-07-20T03:57:51;4.63;;;3.90;;
6955;SDS011;50345;51.136;16.886;2023-07-20T04:00:17;3.70;;;3.20;;
6955;SDS011;50345;51.136;16.886;2023-07-20T04:02:43;3.70;;;3.38;;
6955;SDS011;50345;51.136;16.886;2023-07-20T04:05:09;3.90;;;3.50;;
6955;SDS011;50345;51.136;16.886;2023-07-20T04:07:34;4.37;;;3.63;;
6955;SDS011;50345;51.136;16.886;2023-07-20T04:10:00;6.90;;;4.00;;
6955;SDS011;50345;51.136;16.886;2023-07-20T04:12:25;5.00;;;3.97;;
6955;SDS011;50345;51.136;16.886;2023-07-20T04:14:51;3.47;;;3.17;;
6955;SDS011;50345;51.136;16.886;2023-07-20T04:17:17;4.63;;;4.17;;
6955;SDS011;50345;51.136;16.886;2023-07-20T04:19:43;9.57;;;4.03;;
6955;SDS011;50345;51.136;16.886;2023-07-20T04:22:09;4.50;;;3.27;;
6955;SDS011;50345;51.136;16.886;2023-07-20T04:24:34;5.13;;;3.80;;
6955;SDS011;50345;51.136;16.886;2023-07-20T04:27:00;4.53;;;4.13;;
6955;SDS011;50345;51.136;16.886;2023-07-20T04:29:26;3.90;;;3.60;;
6955;SDS011;50345;51.136;16.886;2023-07-20T04:31:52;8.70;;;4.07;;
6955;SDS011;50345;51.136;16.886;2023-07-20T04:34:18;5.03;;;3.50;;
6955;SDS011;50345;51.136;16.886;2023-07-20T04:36:44;4.20;;;3.80;;
6955;SDS011;50345;51.136;16.886;2023-07-20T04:39:09;4.90;;;4.40;;
6955;SDS011;50345;51.136;16.886;2023-07-20T04:41:35;6.70;;;3.63;;
6955;SDS011;50345;51.136;16.886;2023-07-20T04:44:01;4.27;;;3.87;;
6955;SDS011;50345;51.136;16.886;2023-07-20T04:46:26;4.87;;;4.20;;
6955;SDS011;50345;51.136;16.886;2023-07-20T04:48:52;4.53;;;4.07;;
6955;SDS011;50345;51.136;16.886;2023-07-20T04:51:17;7.70;;;5.47;;
6955;SDS011;50345;51.136;16.886;2023-07-20T04:53:46;5.10;;;4.60;;
6955;SDS011;50345;51.136;16.886;2023-07-20T04:56:12;5.20;;;4.77;;
6955;SDS011;50345;51.136;16.886;2023-07-20T04:58:38;5.47;;;4.50;;
6955;SDS011;50345;51.136;16.886;2023-07-20T05:01:03;6.27;;;4.30;;
6955;SDS011;50345;51.136;16.886;2023-07-20T05:03:29;4.93;;;4.17;;
6955;SDS011;50345;51.136;16.886;2023-07-20T05:05:55;5.60;;;4.30;;
6955;SDS011;50345;51.136;16.886;2023-07-20T05:08:20;5.40;;;4.90;;
6955;SDS011;50345;51.136;16.886;2023-07-20T05:10:47;6.93;;;5.13;;
6955;SDS011;50345;51.136;16.886;2023-07-20T05:13:13;5.67;;;4.20;;
6955;SDS011;50345;51.136;16.886;2023-07-20T05:15:39;7.00;;;5.13;;
6955;SDS011;50345;51.136;16.886;2023-07-20T05:18:04;7.67;;;4.70;;
6955;SDS011;50345;51.136;16.886;2023-07-20T05:20:30;5.50;;;4.50;;
6955;SDS011;50345;51.136;16.886;2023-07-20T05:22:58;5.13;;;4.63;;
6955;SDS011;50345;51.136;16.886;2023-07-20T05:25:24;5.43;;;4.90;;
6955;SDS011;50345;51.136;16.886;2023-07-20T05:27:51;7.73;;;5.27;;
6955;SDS011;50345;51.136;16.886;2023-07-20T05:30:17;7.43;;;4.80;;
6955;SDS011;50345;51.136;16.886;2023-07-20T05:32:43;6.20;;;3.93;;
6955;SDS011;50345;51.136;16.886;2023-07-20T05:35:12;12.70;;;5.40;;
6955;SDS011;50345;51.136;16.886;2023-07-20T05:37:39;5.13;;;4.63;;
6955;SDS011;50345;51.136;16.886;2023-07-20T05:40:05;7.70;;;4.70;;
6955;SDS011;50345;51.136;16.886;2023-07-20T05:42:33;7.47;;;4.50;;
6955;SDS011;50345;51.136;16.886;2023-07-20T05:44:58;6.50;;;5.33;;
6955;SDS011;50345;51.136;16.886;2023-07-20T05:47:24;7.77;;;4.80;;
6955;SDS011;50345;51.136;16.886;2023-07-20T05:49:49;5.70;;;5.20;;
6955;SDS011;50345;51.136;16.886;2023-07-20T05:52:15;8.47;;;5.50;;
6955;SDS011;50345;51.136;16.886;2023-07-20T05:54:40;10.50;;;5.10;;
6955;SDS011;50345;51.136;16.886;2023-07-20T05:57:06;7.43;;;4.37;;
6955;SDS011;50345;51.136;16.886;2023-07-20T05:59:32;9.37;;;4.33;;
6955;SDS011;50345;51.136;16.886;2023-07-20T06:01:58;6.50;;;5.43;;
6955;SDS011;50345;51.136;16.886;2023-07-20T06:04:24;10.80;;;5.57;;
6955;SDS011;50345;51.136;16.886;2023-07-20T06:06:50;11.47;;;6.80;;
6955;SDS011;50345;51.136;16.886;2023-07-20T06:09:15;5.47;;;4.63;;
6955;SDS011;50345;51.136;16.886;2023-07-20T06:11:41;7.23;;;6.13;;
6955;SDS011;50345;51.136;16.886;2023-07-20T06:14:07;5.60;;;4.93;;
6955;SDS011;50345;51.136;16.886;2023-07-20T06:16:33;9.87;;;5.80;;
6955;SDS011;50345;51.136;16.886;2023-07-20T06:18:59;5.90;;;4.90;;
6955;SDS011;50345;51.136;16.886;2023-07-20T06:21:26;6.60;;;5.00;;
6955;SDS011;50345;51.136;16.886;2023-07-20T06:23:51;6.80;;;5.50;;
6955;SDS011;50345;51.136;16.886;2023-07-20T06:26:17;8.90;;;5.53;;
6955;SDS011;50345;51.136;16.886;2023-07-20T06:28:44;9.67;;;6.20;;
6955;SDS011;50345;51.136;16.886;2023-07-20T06:31:10;10.97;;;6.60;;
6955;SDS011;50345;51.136;16.886;2023-07-20T06:33:36;12.70;;;4.77;;
6955;SDS011;50345;51.136;16.886;2023-07-20T06:36:03;4.83;;;4.40;;
6955;SDS011;50345;51.136;16.886;2023-07-20T06:38:29;6.13;;;5.50;;
6955;SDS011;50345;51.136;16.886;2023-07-20T06:40:55;9.50;;;4.73;;
6955;SDS011;50345;51.136;16.886;2023-07-20T06:43:21;5.23;;;4.57;;
6955;SDS011;50345;51.136;16.886;2023-07-20T06:45:53;5.37;;;4.63;;
6955;SDS011;50345;51.136;16.886;2023-07-20T06:48:19;6.00;;;5.40;;
6955;SDS011;50345;51.136;16.886;2023-07-20T06:50:45;5.73;;;5.07;;
6955;SDS011;50345;51.136;16.886;2023-07-20T06:53:11;4.70;;;4.27;;
6955;SDS011;50345;51.136;16.886;2023-07-20T06:55:37;4.87;;;4.37;;
6955;SDS011;50345;51.136;16.886;2023-07-20T06:58:03;5.67;;;5.03;;
6955;SDS011;50345;51.136;16.886;2023-07-20T07:00:29;5.10;;;4.50;;
6955;SDS011;50345;51.136;16.886;2023-07-20T07:02:55;4.87;;;4.47;;
6955;SDS011;50345;51.136;16.886;2023-07-20T07:05:21;4.23;;;3.83;;
6955;SDS011;50345;51.136;16.886;2023-07-20T07:07:47;4.57;;;4.17;;
6955;SDS011;50345;51.136;16.886;2023-07-20T07:10:14;6.47;;;4.27;;
6955;SDS011;50345;51.136;16.886;2023-07-20T07:12:40;10.63;;;3.90;;
6955;SDS011;50345;51.136;16.886;2023-07-20T07:15:06;5.20;;;4.77;;
6955;SDS011;50345;51.136;16.886;2023-07-20T07:17:32;6.40;;;4.13;;
6955;SDS011;50345;51.136;16.886;2023-07-20T07:19:58;5.70;;;5.03;;
6955;SDS011;50345;51.136;16.886;2023-07-20T07:22:24;7.03;;;4.50;;
6955;SDS011;50345;51.136;16.886;2023-07-20T07:24:50;5.90;;;4.20;;
6955;SDS011;50345;51.136;16.886;2023-07-20T07:27:16;9.00;;;5.03;;
6955;SDS011;50345;51.136;16.886;2023-07-20T07:29:42;5.40;;;4.50;;
6955;SDS011;50345;51.136;16.886;2023-07-20T07:32:09;10.43;;;4.13;;
6955;SDS011;50345;51.136;16.886;2023-07-20T07:34:36;8.03;;;4.63;;
6955;SDS011;50345;51.136;16.886;2023-07-20T07:37:02;4.83;;;4.30;;
6955;SDS011;50345;51.136;16.886;2023-07-20T07:39:28;5.33;;;3.37;;
6955;SDS011;50345;51.136;16.886;2023-07-20T07:41:55;3.77;;;3.33;;
6955;SDS011;50345;51.136;16.886;2023-07-20T07:44:21;6.80;;;3.50;;
6955;SDS011;50345;51.136;16.886;2023-07-20T07:46:47;4.70;;;3.60;;
6955;SDS011;50345;51.136;16.886;2023-07-20T07:49:13;5.20;;;3.73;;
6955;SDS011;50345;51.136;16.886;2023-07-20T07:51:39;4.20;;;3.40;;
6955;SDS011;50345;51.136;16.886;2023-07-20T07:54:05;3.43;;;2.83;;
6955;SDS011;50345;51.136;16.886;2023-07-20T07:56:31;3.27;;;3.03;;
6955;SDS011;50345;51.136;16.886;2023-07-20T07:58:57;5.47;;;2.60;;
6955;SDS011;50345;51.136;16.886;2023-07-20T08:01:23;4.03;;;2.83;;
6955;SDS011;50345;51.136;16.886;2023-07-20T08:03:50;2.13;;;2.03;;
6955;SDS011;50345;51.136;16.886;2023-07-20T08:06:16;3.37;;;2.43;;
6955;SDS011;50345;51.136;16.886;2023-07-20T08:08:42;2.67;;;2.47;;
6955;SDS011;50345;51.136;16.886;2023-07-20T08:11:08;3.33;;;2.23;;
6955;SDS011;50345;51.136;16.886;2023-07-20T08:13:34;3.10;;;2.20;;
6955;SDS011;50345;51.136;16.886;2023-07-20T08:16:01;2.63;;;2.43;;
6955;SDS011;50345;51.136;16.886;2023-07-20T08:18:27;3.33;;;2.10;;
6955;SDS011;50345;51.136;16.886;2023-07-20T08:20:53;3.47;;;2.20;;
6955;SDS011;50345;51.136;16.886;2023-07-20T08:23:19;3.30;;;1.90;;
6955;SDS011;50345;51.136;16.886;2023-07-20T08:25:45;3.50;;;2.23;;
6955;SDS011;50345;51.136;16.886;2023-07-20T08:28:15;2.43;;;2.23;;
6955;SDS011;50345;51.136;16.886;2023-07-20T08:30:41;2.97;;;2.17;;
6955;SDS011;50345;51.136;16.886;2023-07-20T08:33:08;2.87;;;2.40;;
6955;SDS011;50345;51.136;16.886;2023-07-20T08:35:33;2.30;;;2.10;;
6955;SDS011;50345;51.136;16.886;2023-07-20T08:37:59;2.27;;;2.10;;
6955;SDS011;50345;51.136;16.886;2023-07-20T08:40:27;4.13;;;3.20;;
6955;SDS011;50345;51.136;16.886;2023-07-20T08:42:54;2.80;;;2.53;;
6955;SDS011;50345;51.136;16.886;2023-07-20T08:45:20;4.50;;;2.37;;
6955;SDS011;50345;51.136;16.886;2023-07-20T08:47:47;2.87;;;2.63;;
6955;SDS011;50345;51.136;16.886;2023-07-20T08:50:14;2.97;;;2.77;;
6955;SDS011;50345;51.136;16.886;2023-07-20T08:52:40;2.70;;;2.10;;
6955;SDS011;50345;51.136;16.886;2023-07-20T08:55:06;2.13;;;2.03;;
6955;SDS011;50345;51.136;16.886;2023-07-20T08:57:33;2.83;;;2.63;;
6955;SDS011;50345;51.136;16.886;2023-07-20T09:00:02;2.40;;;1.83;;
6955;SDS011;50345;51.136;16.886;2023-07-20T09:02:35;1.90;;;1.80;;
6955;SDS011;50345;51.136;16.886;2023-07-20T09:05:04;2.10;;;1.90;;
6955;SDS011;50345;51.136;16.886;2023-07-20T09:07:30;3.90;;;2.90;;
6955;SDS011;50345;51.136;16.886;2023-07-20T09:09:57;2.83;;;2.63;;
6955;SDS011;50345;51.136;16.886;2023-07-20T09:12:23;2.90;;;2.30;;
6955;SDS011;50345;51.136;16.886;2023-07-20T09:14:49;3.77;;;2.90;;
6955;SDS011;50345;51.136;16.886;2023-07-20T09:17:15;2.47;;;2.27;;
6955;SDS011;50345;51.136;16.886;2023-07-20T09:19:50;3.30;;;1.90;;
6955;SDS011;50345;51.136;16.886;2023-07-20T09:22:16;2.70;;;2.50;;
6955;SDS011;50345;51.136;16.886;2023-07-20T09:24:42;4.10;;;2.33;;
6955;SDS011;50345;51.136;16.886;2023-07-20T09:27:08;3.30;;;2.03;;
6955;SDS011;50345;51.136;16.886;2023-07-20T09:29:46;2.20;;;2.10;;
6955;SDS011;50345;51.136;16.886;2023-07-20T09:32:12;2.50;;;2.30;;
6955;SDS011;50345;51.136;16.886;2023-07-20T09:34:38;2.20;;;1.80;;
6955;SDS011;50345;51.136;16.886;2023-07-20T09:37:05;2.20;;;2.00;;
6955;SDS011;50345;51.136;16.886;2023-07-20T09:39:31;1.70;;;1.60;;
6955;SDS011;50345;51.136;16.886;2023-07-20T09:42:00;1.80;;;1.50;;
6955;SDS011;50345;51.136;16.886;2023-07-20T09:44:27;1.97;;;1.87;;
6955;SDS011;50345;51.136;16.886;2023-07-20T09:46:53;3.23;;;1.77;;
6955;SDS011;50345;51.136;16.886;2023-07-20T09:49:20;1.80;;;1.70;;
6955;SDS011;50345;51.136;16.886;2023-07-20T09:51:46;1.60;;;1.50;;
6955;SDS011;50345;51.136;16.886;2023-07-20T09:54:13;2.13;;;1.50;;
6955;SDS011;50345;51.136;16.886;2023-07-20T09:56:40;1.60;;;1.50;;
6955;SDS011;50345;51.136;16.886;2023-07-20T09:59:06;1.57;;;1.47;;
6955;SDS011;50345;51.136;16.886;2023-07-20T10:01:32;1.20;;;1.10;;
6955;SDS011;50345;51.136;16.886;2023-07-20T10:04:00;1.40;;;0.93;;
6955;SDS011;50345;51.136;16.886;2023-07-20T10:06:29;1.63;;;1.00;;
6955;SDS011;50345;51.136;16.886;2023-07-20T10:09:00;6.83;;;1.50;;
6955;SDS011;50345;51.136;16.886;2023-07-20T10:11:29;1.67;;;1.43;;
6955;SDS011;50345;51.136;16.886;2023-07-20T10:13:55;1.67;;;1.57;;
6955;SDS011;50345;51.136;16.886;2023-07-20T10:16:31;2.17;;;2.07;;
6955;SDS011;50345;51.136;16.886;2023-07-20T10:21:23;1.57;;;1.17;;
6955;SDS011;50345;51.136;16.886;2023-07-20T10:23:50;2.77;;;1.43;;
6955;SDS011;50345;51.136;16.886;2023-07-20T10:26:16;1.60;;;1.50;;
6955;SDS011;50345;51.136;16.886;2023-07-20T10:28:42;1.40;;;1.30;;
6955;SDS011;50345;51.136;16.886;2023-07-20T10:31:09;1.70;;;1.20;;
6955;SDS011;50345;51.136;16.886;2023-07-20T10:33:36;1.50;;;1.40;;
6955;SDS011;50345;51.136;16.886;2023-07-20T10:36:03;1.50;;;1.40;;
6955;SDS011;50345;51.136;16.886;2023-07-20T10:38:39;1.37;;;1.27;;
6955;SDS011;50345;51.136;16.886;2023-07-20T10:41:15;2.57;;;1.63;;
6955;SDS011;50345;51.136;16.886;2023-07-20T10:43:42;1.80;;;1.70;;
6955;SDS011;50345;51.136;16.886;2023-07-20T10:46:09;1.90;;;1.37;;
6955;SDS011;50345;51.136;16.886;2023-07-20T10:48:36;2.77;;;1.90;;
6955;SDS011;50345;51.136;16.886;2023-07-20T10:51:22;1.80;;;1.70;;
6955;SDS011;50345;51.136;16.886;2023-07-20T10:53:49;2.03;;;1.80;;
6955;SDS011;50345;51.136;16.886;2023-07-20T10:56:19;1.60;;;1.50;;
6955;SDS011;50345;51.136;16.886;2023-07-20T10:58:45;1.47;;;1.30;;
6955;SDS011;50345;51.136;16.886;2023-07-20T11:01:15;2.07;;;1.77;;
6955;SDS011;50345;51.136;16.886;2023-07-20T11:03:42;2.00;;;1.90;;
6955;SDS011;50345;51.136;16.886;2023-07-20T11:08:56;1.67;;;1.57;;
6955;SDS011;50345;51.136;16.886;2023-07-20T11:11:32;1.80;;;1.70;;
6955;SDS011;50345;51.136;16.886;2023-07-20T11:13:59;2.27;;;2.07;;
6955;SDS011;50345;51.136;16.886;2023-07-20T11:16:33;4.37;;;2.10;;
6955;SDS011;50345;51.136;16.886;2023-07-20T11:18:59;3.73;;;1.67;;
6955;SDS011;50345;51.136;16.886;2023-07-20T11:21:25;5.23;;;1.93;;
6955;SDS011;50345;51.136;16.886;2023-07-20T11:23:52;1.63;;;1.53;;
6955;SDS011;50345;51.136;16.886;2023-07-20T11:26:18;2.23;;;2.13;;
6955;SDS011;50345;51.136;16.886;2023-07-20T11:28:48;2.43;;;2.20;;
6955;SDS011;50345;51.136;16.886;2023-07-20T11:31:14;2.23;;;1.90;;
6955;SDS011;50345;51.136;16.886;2023-07-20T11:33:42;2.87;;;2.40;;
6955;SDS011;50345;51.136;16.886;2023-07-20T11:36:08;2.77;;;2.57;;
6955;SDS011;50345;51.136;16.886;2023-07-20T11:38:34;3.53;;;3.27;;
6955;SDS011;50345;51.136;16.886;2023-07-20T11:41:02;3.33;;;3.10;;
6955;SDS011;50345;51.136;16.886;2023-07-20T11:43:28;3.20;;;3.00;;
6955;SDS011;50345;51.136;16.886;2023-07-20T11:45:55;3.77;;;3.50;;
6955;SDS011;50345;51.136;16.886;2023-07-20T11:48:21;3.63;;;3.43;;
6955;SDS011;50345;51.136;16.886;2023-07-20T11:50:47;3.63;;;3.30;;
6955;SDS011;50345;51.136;16.886;2023-07-20T11:53:13;3.23;;;3.00;;
6955;SDS011;50345;51.136;16.886;2023-07-20T11:55:40;3.10;;;2.90;;
6955;SDS011;50345;51.136;16.886;2023-07-20T11:58:07;3.10;;;2.90;;
6955;SDS011;50345;51.136;16.886;2023-07-20T12:00:33;3.93;;;2.63;;
6955;SDS011;50345;51.136;16.886;2023-07-20T12:03:00;2.37;;;2.27;;
6955;SDS011;50345;51.136;16.886;2023-07-20T12:05:26;2.53;;;2.33;;
6955;SDS011;50345;51.136;16.886;2023-07-20T12:07:52;2.80;;;2.60;;
6955;SDS011;50345;51.136;16.886;2023-07-20T12:10:25;2.53;;;2.33;;
6955;SDS011;50345;51.136;16.886;2023-07-20T12:12:51;2.87;;;1.90;;
6955;SDS011;50345;51.136;16.886;2023-07-20T12:17:51;1.93;;;1.83;;
6955;SDS011;50345;51.136;16.886;2023-07-20T12:20:31;2.10;;;1.90;;
6955;SDS011;50345;51.136;16.886;2023-07-20T12:23:01;2.50;;;2.23;;
6955;SDS011;50345;51.136;16.886;2023-07-20T12:25:36;2.23;;;1.90;;
6955;SDS011;50345;51.136;16.886;2023-07-20T12:28:13;2.30;;;2.10;;
6955;SDS011;50345;51.136;16.886;2023-07-20T12:30:40;2.33;;;2.13;;
6955;SDS011;50345;51.136;16.886;2023-07-20T12:33:06;2.13;;;1.93;;
6955;SDS011;50345;51.136;16.886;2023-07-20T12:35:32;3.03;;;2.93;;
6955;SDS011;50345;51.136;16.886;2023-07-20T12:37:58;3.67;;;3.37;;
6955;SDS011;50345;51.136;16.886;2023-07-20T12:40:24;2.70;;;2.50;;
6955;SDS011;50345;51.136;16.886;2023-07-20T12:42:51;2.90;;;2.70;;
6955;SDS011;50345;51.136;16.886;2023-07-20T12:45:17;2.83;;;2.70;;
6955;SDS011;50345;51.136;16.886;2023-07-20T12:47:43;2.63;;;2.43;;
6955;SDS011;50345;51.136;16.886;2023-07-20T12:50:10;4.80;;;2.30;;
6955;SDS011;50345;51.136;16.886;2023-07-20T12:52:36;1.90;;;1.80;;
6955;SDS011;50345;51.136;16.886;2023-07-20T12:55:03;2.10;;;1.93;;
6955;SDS011;50345;51.136;16.886;2023-07-20T12:57:29;3.40;;;2.00;;
6955;SDS011;50345;51.136;16.886;2023-07-20T12:59:55;1.90;;;1.80;;
6955;SDS011;50345;51.136;16.886;2023-07-20T13:02:21;2.57;;;2.37;;
6955;SDS011;50345;51.136;16.886;2023-07-20T13:04:47;1.60;;;1.50;;
6955;SDS011;50345;51.136;16.886;2023-07-20T13:07:13;2.43;;;2.23;;
6955;SDS011;50345;51.136;16.886;2023-07-20T13:09:39;1.93;;;1.83;;
6955;SDS011;50345;51.136;16.886;2023-07-20T13:12:05;2.07;;;1.97;;
6955;SDS011;50345;51.136;16.886;2023-07-20T13:14:32;2.00;;;1.90;;
6955;SDS011;50345;51.136;16.886;2023-07-20T13:16:58;2.20;;;2.10;;
6955;SDS011;50345;51.136;16.886;2023-07-20T13:19:24;2.07;;;1.97;;
6955;SDS011;50345;51.136;16.886;2023-07-20T13:21:50;2.17;;;2.07;;
6955;SDS011;50345;51.136;16.886;2023-07-20T13:24:16;2.77;;;2.27;;
6955;SDS011;50345;51.136;16.886;2023-07-20T13:26:42;2.70;;;1.97;;
6955;SDS011;50345;51.136;16.886;2023-07-20T13:29:08;2.43;;;1.27;;
6955;SDS011;50345;51.136;16.886;2023-07-20T13:31:34;1.90;;;1.80;;
6955;SDS011;50345;51.136;16.886;2023-07-20T13:34:00;1.87;;;1.50;;
6955;SDS011;50345;51.136;16.886;2023-07-20T13:36:26;2.60;;;1.60;;
6955;SDS011;50345;51.136;16.886;2023-07-20T13:38:52;3.67;;;1.20;;
6955;SDS011;50345;51.136;16.886;2023-07-20T13:41:18;1.87;;;1.67;;
6955;SDS011;50345;51.136;16.886;2023-07-20T13:43:44;1.93;;;1.73;;
6955;SDS011;50345;51.136;16.886;2023-07-20T13:46:10;1.60;;;1.50;;
6955;SDS011;50345;51.136;16.886;2023-07-20T13:48:37;1.83;;;1.30;;
6955;SDS011;50345;51.136;16.886;2023-07-20T13:51:03;1.40;;;1.30;;
6955;SDS011;50345;51.136;16.886;2023-07-20T13:53:29;2.00;;;1.13;;
6955;SDS011;50345;51.136;16.886;2023-07-20T13:55:55;1.30;;;1.20;;
6955;SDS011;50345;51.136;16.886;2023-07-20T13:58:22;1.40;;;1.30;;
6955;SDS011;50345;51.136;16.886;2023-07-20T14:00:48;1.30;;;1.20;;
6955;SDS011;50345;51.136;16.886;2023-07-20T14:03:14;1.83;;;1.53;;
6955;SDS011;50345;51.136;16.886;2023-07-20T14:05:40;4.10;;;1.77;;
6955;SDS011;50345;51.136;16.886;2023-07-20T14:08:06;1.70;;;1.60;;
6955;SDS011;50345;51.136;16.886;2023-07-20T14:10:32;1.57;;;1.47;;
6955;SDS011;50345;51.136;16.886;2023-07-20T14:12:58;1.60;;;1.20;;
6955;SDS011;50345;51.136;16.886;2023-07-20T14:15:24;2.37;;;1.23;;
6955;SDS011;50345;51.136;16.886;2023-07-20T14:17:50;1.10;;;1.00;;
6955;SDS011;50345;51.136;16.886;2023-07-20T14:20:16;2.50;;;1.40;;
6955;SDS011;50345;51.136;16.886;2023-07-20T14:22:42;1.30;;;1.20;;
6955;SDS011;50345;51.136;16.886;2023-07-20T14:25:09;1.53;;;1.27;;
6955;SDS011;50345;51.136;16.886;2023-07-20T14:27:35;1.33;;;1.23;;
6955;SDS011;50345;51.136;16.886;2023-07-20T14:30:01;1.60;;;1.50;;
6955;SDS011;50345;51.136;16.886;2023-07-20T14:32:27;1.40;;;1.30;;
6955;SDS011;50345;51.136;16.886;2023-07-20T14:34:53;1.20;;;1.13;;
6955;SDS011;50345;51.136;16.886;2023-07-20T14:37:19;1.43;;;1.33;;
6955;SDS011;50345;51.136;16.886;2023-07-20T14:39:45;1.10;;;1.00;;
6955;SDS011;50345;51.136;16.886;2023-07-20T14:42:13;1.50;;;1.40;;
6955;SDS011;50345;51.136;16.886;2023-07-20T14:44:39;1.17;;;1.10;;
6955;SDS011;50345;51.136;16.886;2023-07-20T14:47:05;1.50;;;1.40;;
6955;SDS011;50345;51.136;16.886;2023-07-20T14:49:31;1.20;;;1.10;;
6955;SDS011;50345;51.136;16.886;2023-07-20T14:51:57;3.30;;;1.70;;
6955;SDS011;50345;51.136;16.886;2023-07-20T14:54:23;1.00;;;1.00;;
6955;SDS011;50345;51.136;16.886;2023-07-20T14:56:50;2.20;;;1.30;;
6955;SDS011;50345;51.136;16.886;2023-07-20T14:59:19;1.90;;;1.60;;
6955;SDS011;50345;51.136;16.886;2023-07-20T15:01:45;1.40;;;1.30;;
6955;SDS011;50345;51.136;16.886;2023-07-20T15:04:12;2.70;;;1.40;;